Irene V — J8PS4 — position and weather

sailwx.info

Track history (hours):
 
Tides and Currents Weather Stations Pressure Air Temp Water Temp Dewpoint Dewpoint Depression Visibility Wind Speed Wind Dir Waves Ship Positions

Irene V

Last reported at 2016-Dec-16 17:25 UTC. Time now 2017-Jan-17 17:19 UTC.
Position N 16°14' W 061°33'.
Warning: this ship's position is 31 days out of date.

Length 72 m; draft 5.8 m.

Type: Cargo ship. MMSI: 377924000.

Date/timePositionNaut miles runAvg speedWind from/ knotsBaromVisibWave heightAir tempDewpointWater temp
2016-Dec-16 17:25N 16°14' W 061°33'0 0.0
2016-Dec-16 16:24N 16°14' W 061°33'0 0.0
2016-Dec-16 14:31N 16°14' W 061°33'0 0.0
2016-Dec-16 13:10N 16°14' W 061°33'0 0.0
2016-Dec-16 12:25N 16°14' W 061°33'0 0.0
2016-Dec-16 11:33N 16°14' W 061°33'1 0.7
2016-Dec-16 10:34N 16°14' W 061°32'16 5.3
2016-Dec-16 07:31N 15°58' W 061°35'  
2016-Dec-09 14:22N 10°48' W 061°58'810.5
2016-Dec-09 13:33N 10°46' W 061°50'10 9.5
2016-Dec-09 12:34N 10°39' W 061°43'5 5.4
2016-Dec-09 11:34N 10°41' W 061°38'0 0.1
2016-Dec-09 10:33N 10°41' W 061°38'0 0.0
2016-Dec-09 09:33N 10°41' W 061°38'0 0.0
2016-Dec-09 08:33N 10°41' W 061°38'0 0.0
2016-Dec-09 07:33N 10°41' W 061°38'0 0.0
2016-Dec-09 06:33N 10°41' W 061°38'0 0.0
2016-Dec-09 05:34N 10°41' W 061°38'0 0.0
2016-Dec-09 04:33N 10°41' W 061°38'0 0.0
2016-Dec-09 03:33N 10°41' W 061°38'0 0.0
2016-Dec-09 02:33N 10°41' W 061°38'0 0.0
2016-Dec-09 01:33N 10°41' W 061°38'0 0.0
2016-Dec-09 00:33N 10°41' W 061°38'0 0.0
2016-Dec-08 23:33N 10°41' W 061°38'0 0.0
2016-Dec-08 22:33N 10°41' W 061°38'0 0.0
2016-Dec-08 21:33N 10°41' W 061°38'0 0.0
2016-Dec-08 20:33N 10°41' W 061°38'0 0.0
2016-Dec-08 19:32N 10°41' W 061°38'0 0.0
2016-Dec-08 18:32N 10°41' W 061°38'0 0.0
2016-Dec-08 17:33N 10°41' W 061°38'0 0.0
2016-Dec-08 16:33N 10°41' W 061°38'0 0.0
2016-Dec-08 15:33N 10°41' W 061°38'0 0.0
2016-Dec-08 14:33N 10°41' W 061°38'0 0.0
2016-Dec-08 13:33N 10°41' W 061°38'0 0.0
2016-Dec-08 12:34N 10°41' W 061°38'0 0.0
2016-Dec-08 11:33N 10°41' W 061°38'0 0.0
2016-Dec-08 10:33N 10°41' W 061°38'1 0.6
2016-Dec-08 09:33N 10°40' W 061°39'0 0.1
2016-Dec-08 08:33N 10°40' W 061°39'0 0.0
2016-Dec-08 07:33N 10°40' W 061°39'0 0.0
2016-Dec-08 06:33N 10°40' W 061°39'0 0.1
2016-Dec-08 05:34N 10°40' W 061°39'0 0.0
2016-Dec-08 04:33N 10°40' W 061°39'0 0.0
2016-Dec-08 03:33N 10°40' W 061°39'0 0.1
2016-Dec-08 02:33N 10°40' W 061°39'0 0.0
2016-Dec-08 01:33N 10°40' W 061°38'0 0.0
2016-Dec-08 00:33N 10°40' W 061°39'0 0.1
2016-Dec-07 23:33N 10°40' W 061°38'0 0.0
2016-Dec-07 22:34N 10°40' W 061°38'0 0.1
2016-Dec-07 21:33N 10°40' W 061°39'0 0.0
2016-Dec-07 20:33N 10°40' W 061°39'0 0.0
2016-Dec-07 19:33N 10°40' W 061°39'0 0.0
2016-Dec-07 18:33N 10°40' W 061°39'0 0.0
2016-Dec-07 17:33N 10°40' W 061°39'0 0.0
2016-Dec-07 16:33N 10°40' W 061°39'0 0.0
2016-Dec-07 15:33N 10°40' W 061°39'0 0.0
2016-Dec-07 14:33N 10°40' W 061°39'0 0.1
2016-Dec-07 13:34N 10°40' W 061°39'2 1.5
2016-Dec-07 12:33N 10°39' W 061°40'7 7.1
2016-Dec-07 11:33N 10°40' W 061°47'7 6.5
2016-Dec-07 10:33N 10°46' W 061°50'6 5.9
2016-Dec-07 09:33N 10°46' W 061°56'9 5.9
2016-Dec-07 08:05N 10°45' W 062°05'3 5.7
2016-Dec-07 07:32N 10°45' W 062°08'  
Track history (hours):
 
Tides and Currents Weather Stations Pressure Air Temp Water Temp Dewpoint Dewpoint Depression Visibility Wind Speed Wind Dir Waves Ship Positions

Irene V

Last reported at 2016-Dec-16 17:25 UTC. Time now 2017-Jan-17 17:19 UTC.
Position N 16°14' W 061°33'.
Warning: this ship's position is 31 days out of date.

Length 72 m; draft 5.8 m.

Type: Cargo ship. MMSI: 377924000.

Date/timePositionNaut miles runAvg speedWind from/ knotsBaromVisibWave heightAir tempDewpointWater temp
2016-Dec-16 17:25N 16°14' W 061°33'0 0.0
2016-Dec-16 16:24N 16°14' W 061°33'0 0.0
2016-Dec-16 14:31N 16°14' W 061°33'0 0.0
2016-Dec-16 13:10N 16°14' W 061°33'0 0.0
2016-Dec-16 12:25N 16°14' W 061°33'0 0.0
2016-Dec-16 11:33N 16°14' W 061°33'1 0.7
2016-Dec-16 10:34N 16°14' W 061°32'16 5.3
2016-Dec-16 07:31N 15°58' W 061°35'  
2016-Dec-09 14:22N 10°48' W 061°58'810.5
2016-Dec-09 13:33N 10°46' W 061°50'10 9.5
2016-Dec-09 12:34N 10°39' W 061°43'5 5.4
2016-Dec-09 11:34N 10°41' W 061°38'0 0.1
2016-Dec-09 10:33N 10°41' W 061°38'0 0.0
2016-Dec-09 09:33N 10°41' W 061°38'0 0.0
2016-Dec-09 08:33N 10°41' W 061°38'0 0.0
2016-Dec-09 07:33N 10°41' W 061°38'0 0.0
2016-Dec-09 06:33N 10°41' W 061°38'0 0.0
2016-Dec-09 05:34N 10°41' W 061°38'0 0.0
2016-Dec-09 04:33N 10°41' W 061°38'0 0.0
2016-Dec-09 03:33N 10°41' W 061°38'0 0.0
2016-Dec-09 02:33N 10°41' W 061°38'0 0.0
2016-Dec-09 01:33N 10°41' W 061°38'0 0.0
2016-Dec-09 00:33N 10°41' W 061°38'0 0.0
2016-Dec-08 23:33N 10°41' W 061°38'0 0.0
2016-Dec-08 22:33N 10°41' W 061°38'0 0.0
2016-Dec-08 21:33N 10°41' W 061°38'0 0.0
2016-Dec-08 20:33N 10°41' W 061°38'0 0.0
2016-Dec-08 19:32N 10°41' W 061°38'0 0.0
2016-Dec-08 18:32N 10°41' W 061°38'0 0.0
2016-Dec-08 17:33N 10°41' W 061°38'0 0.0
2016-Dec-08 16:33N 10°41' W 061°38'0 0.0
2016-Dec-08 15:33N 10°41' W 061°38'0 0.0
2016-Dec-08 14:33N 10°41' W 061°38'0 0.0
2016-Dec-08 13:33N 10°41' W 061°38'0 0.0
2016-Dec-08 12:34N 10°41' W 061°38'0 0.0
2016-Dec-08 11:33N 10°41' W 061°38'0 0.0
2016-Dec-08 10:33N 10°41' W 061°38'1 0.6
2016-Dec-08 09:33N 10°40' W 061°39'0 0.1
2016-Dec-08 08:33N 10°40' W 061°39'0 0.0
2016-Dec-08 07:33N 10°40' W 061°39'0 0.0
2016-Dec-08 06:33N 10°40' W 061°39'0 0.1
2016-Dec-08 05:34N 10°40' W 061°39'0 0.0
2016-Dec-08 04:33N 10°40' W 061°39'0 0.0
2016-Dec-08 03:33N 10°40' W 061°39'0 0.1
2016-Dec-08 02:33N 10°40' W 061°39'0 0.0
2016-Dec-08 01:33N 10°40' W 061°38'0 0.0
2016-Dec-08 00:33N 10°40' W 061°39'0 0.1
2016-Dec-07 23:33N 10°40' W 061°38'0 0.0
2016-Dec-07 22:34N 10°40' W 061°38'0 0.1
2016-Dec-07 21:33N 10°40' W 061°39'0 0.0
2016-Dec-07 20:33N 10°40' W 061°39'0 0.0
2016-Dec-07 19:33N 10°40' W 061°39'0 0.0
2016-Dec-07 18:33N 10°40' W 061°39'0 0.0
2016-Dec-07 17:33N 10°40' W 061°39'0 0.0
2016-Dec-07 16:33N 10°40' W 061°39'0 0.0
2016-Dec-07 15:33N 10°40' W 061°39'0 0.0
2016-Dec-07 14:33N 10°40' W 061°39'0 0.1
2016-Dec-07 13:34N 10°40' W 061°39'2 1.5
2016-Dec-07 12:33N 10°39' W 061°40'7 7.1
2016-Dec-07 11:33N 10°40' W 061°47'7 6.5
2016-Dec-07 10:33N 10°46' W 061°50'6 5.9
2016-Dec-07 09:33N 10°46' W 061°56'9 5.9
2016-Dec-07 08:05N 10°45' W 062°05'3 5.7
2016-Dec-07 07:32N 10°45' W 062°08'  

Dump ship's entire track history